createdAt,value
2022-08-20T00:01:02.082Z,24.50
2022-08-20T00:03:10.422Z,27.90
2022-08-20T00:05:13.199Z,32.10
2022-08-20T00:07:15.566Z,26.53
2022-08-20T00:09:17.592Z,23.60
2022-08-20T00:11:24.104Z,28.93
2022-08-20T00:13:34.278Z,23.70
2022-08-20T00:15:38.773Z,25.67
2022-08-20T00:17:41.207Z,26.17
2022-08-20T00:19:43.175Z,28.37
2022-08-20T00:21:45.356Z,29.10
2022-08-20T00:23:51.322Z,29.43
2022-08-20T00:25:53.935Z,28.97
2022-08-20T00:27:57.647Z,27.93
2022-08-20T00:30:00.068Z,25.63
2022-08-20T00:32:02.212Z,32.87
2022-08-20T00:34:04.406Z,29.47
2022-08-20T00:36:09.397Z,32.40
2022-08-20T00:38:12.266Z,29.17
2022-08-20T00:40:22.470Z,31.70
2022-08-20T00:42:25.432Z,29.60
2022-08-20T00:44:27.921Z,33.57
2022-08-20T00:46:32.006Z,38.70
2022-08-20T00:48:36.237Z,34.07
2022-08-20T00:50:38.963Z,34.20
2022-08-20T00:52:43.207Z,31.47
2022-08-20T00:54:55.595Z,34.23
2022-08-20T00:57:25.543Z,31.30
2022-08-20T00:59:30.186Z,33.20
2022-08-20T01:01:34.543Z,35.37
2022-08-20T01:03:57.577Z,30.93
2022-08-20T01:05:59.919Z,34.47
2022-08-20T01:08:02.368Z,34.17
2022-08-20T01:10:22.761Z,35.93
2022-08-20T01:12:25.227Z,36.20
2022-08-20T01:14:36.255Z,38.97
2022-08-20T01:16:40.680Z,34.97
2022-08-20T01:18:43.013Z,35.33
2022-08-20T01:20:49.901Z,46.00
2022-08-20T01:23:29.940Z,39.90
2022-08-20T01:26:07.342Z,36.90
2022-08-20T01:28:10.743Z,36.63
2022-08-20T01:30:12.911Z,37.03
2022-08-20T01:32:14.885Z,43.70
2022-08-20T01:34:19.281Z,43.30
2022-08-20T01:36:25.633Z,40.23
2022-08-20T01:38:29.579Z,40.10
2022-08-20T01:40:56.199Z,43.80
2022-08-20T01:42:59.700Z,40.27
2022-08-20T01:45:04.230Z,42.93
2022-08-20T01:47:15.274Z,40.87
2022-08-20T01:49:30.663Z,51.53
2022-08-20T01:51:32.742Z,38.60
2022-08-20T01:53:42.554Z,40.53
2022-08-20T01:55:44.766Z,42.17
2022-08-20T01:57:48.036Z,43.70
2022-08-20T02:00:19.842Z,43.80
2022-08-20T02:02:29.767Z,50.13
2022-08-20T02:04:31.864Z,48.93
2022-08-20T02:06:36.439Z,43.07
2022-08-20T02:08:38.358Z,44.20
2022-08-20T02:10:40.942Z,40.53
2022-08-20T02:12:43.009Z,43.53
2022-08-20T02:14:48.002Z,37.80
2022-08-20T02:16:55.502Z,40.23
2022-08-20T02:19:01.533Z,43.37
2022-08-20T02:21:04.205Z,42.43
2022-08-20T02:23:09.500Z,40.43
2022-08-20T02:25:12.332Z,42.23
2022-08-20T02:27:14.695Z,45.93
2022-08-20T02:29:17.590Z,43.27
2022-08-20T02:31:21.309Z,40.37
2022-08-20T02:33:24.628Z,45.90
2022-08-20T02:35:27.399Z,44.53
2022-08-20T02:37:29.798Z,42.33
2022-08-20T02:39:32.399Z,40.00
2022-08-20T02:41:35.519Z,40.27
2022-08-20T02:43:37.851Z,46.00
2022-08-20T02:45:44.071Z,40.37
2022-08-20T02:47:47.212Z,42.10
2022-08-20T02:49:49.514Z,47.77
2022-08-20T02:51:52.078Z,46.13
2022-08-20T02:53:54.090Z,51.60
2022-08-20T02:55:56.809Z,46.23
2022-08-20T02:58:00.357Z,44.07
2022-08-20T03:00:04.218Z,48.40
2022-08-20T03:02:06.244Z,44.73
2022-08-20T03:04:08.210Z,45.67
2022-08-20T03:06:11.089Z,45.20
2022-08-20T03:08:14.688Z,45.50
2022-08-20T03:10:16.870Z,41.40
2022-08-20T03:12:18.860Z,50.17
2022-08-20T03:14:20.927Z,46.90
2022-08-20T03:16:22.898Z,47.53
2022-08-20T03:18:27.893Z,45.47
2022-08-20T03:20:31.257Z,50.23
2022-08-20T03:22:35.432Z,59.47
2022-08-20T03:24:37.507Z,47.37
2022-08-20T03:26:39.508Z,47.30
2022-08-20T03:28:42.034Z,46.23
2022-08-20T03:30:44.350Z,52.10
2022-08-20T03:32:46.622Z,52.33
2022-08-20T03:34:48.806Z,46.50
2022-08-20T03:36:50.874Z,60.20
2022-08-20T03:38:52.847Z,57.27
2022-08-20T03:40:54.866Z,53.43
2022-08-20T03:42:57.523Z,54.00
2022-08-20T03:44:59.512Z,50.07
2022-08-20T03:47:03.930Z,57.83
2022-08-20T03:49:06.246Z,51.20
2022-08-20T03:51:08.387Z,44.43
2022-08-20T03:53:13.058Z,54.47
2022-08-20T03:55:16.867Z,51.83
2022-08-20T03:57:18.860Z,51.80
2022-08-20T03:59:20.833Z,53.73
2022-08-20T04:01:45.481Z,56.40
2022-08-20T04:03:45.364Z,53.27
2022-08-20T04:05:47.445Z,49.37
2022-08-20T04:07:50.724Z,52.03
2022-08-20T04:09:54.338Z,47.20
2022-08-20T04:12:00.968Z,53.40
2022-08-20T04:14:02.974Z,58.10
2022-08-20T04:16:08.968Z,58.50
2022-08-20T04:18:20.349Z,64.93
2022-08-20T04:20:25.892Z,67.63
2022-08-20T04:22:27.833Z,62.10
2022-08-20T04:24:32.125Z,74.10
2022-08-20T04:26:36.466Z,65.27
2022-08-20T04:28:38.478Z,73.40
2022-08-20T04:30:41.133Z,71.87
2022-08-20T04:32:50.023Z,70.73
2022-08-20T04:34:52.267Z,63.63
2022-08-20T04:36:54.327Z,70.10
2022-08-20T04:38:56.698Z,60.23
2022-08-20T04:40:58.701Z,67.27
2022-08-20T04:43:00.868Z,61.17
2022-08-20T04:45:06.832Z,63.00
2022-08-20T04:47:08.807Z,74.60
2022-08-20T04:49:11.004Z,63.03
2022-08-20T04:51:15.121Z,61.47
2022-08-20T04:53:23.917Z,58.20
2022-08-20T04:55:27.766Z,52.43
2022-08-20T04:57:29.837Z,61.30
2022-08-20T04:59:31.779Z,59.23
2022-08-20T05:01:34.710Z,60.70
2022-08-20T05:03:40.651Z,59.83
2022-08-20T05:05:42.982Z,65.47
2022-08-20T05:07:49.048Z,64.80
2022-08-20T05:09:51.062Z,59.57
2022-08-20T05:11:53.048Z,59.40
2022-08-20T05:13:55.099Z,62.50
2022-08-20T05:15:59.919Z,66.37
2022-08-20T05:18:04.754Z,67.23
2022-08-20T05:20:12.036Z,65.13
2022-08-20T05:22:14.020Z,63.07
2022-08-20T05:24:16.491Z,57.50
2022-08-20T05:26:20.235Z,61.40
2022-08-20T05:28:25.195Z,59.50
2022-08-20T05:30:34.322Z,59.67
2022-08-20T05:32:44.540Z,57.00
2022-08-20T05:34:46.880Z,63.70
2022-08-20T05:36:51.349Z,61.97
2022-08-20T05:38:54.837Z,59.83
2022-08-20T05:40:56.813Z,64.43
2022-08-20T05:42:58.918Z,61.50
2022-08-20T05:45:01.958Z,64.13
2022-08-20T05:47:04.750Z,62.13
2022-08-20T05:49:08.749Z,71.17
2022-08-20T05:51:15.056Z,66.27
2022-08-20T05:53:18.584Z,61.60
2022-08-20T05:55:24.004Z,57.67
2022-08-20T05:57:26.088Z,55.40
2022-08-20T05:59:28.081Z,58.07
2022-08-20T06:01:31.573Z,56.03
2022-08-20T06:03:51.782Z,54.27
2022-08-20T06:05:53.876Z,60.33
2022-08-20T06:08:07.065Z,58.37
2022-08-20T06:10:10.862Z,62.40
2022-08-20T06:12:12.815Z,54.27
2022-08-20T06:14:16.638Z,61.57
2022-08-20T06:16:18.641Z,50.87
2022-08-20T06:18:28.236Z,59.30
2022-08-20T06:20:30.852Z,57.20
2022-08-20T06:22:33.328Z,53.03
2022-08-20T06:24:35.457Z,60.80
2022-08-20T06:26:37.510Z,54.40
2022-08-20T06:28:39.588Z,58.83
2022-08-20T06:30:41.532Z,49.63
2022-08-20T06:32:43.851Z,64.73
2022-08-20T06:34:50.071Z,50.27
2022-08-20T06:36:52.992Z,50.80
2022-08-20T06:38:56.185Z,49.93
2022-08-20T06:40:58.332Z,49.27
2022-08-20T06:43:00.528Z,49.40
2022-08-20T06:45:05.703Z,51.23
2022-08-20T06:47:07.774Z,51.17
2022-08-20T06:49:09.771Z,57.60
2022-08-20T06:51:11.835Z,51.80
2022-08-20T06:53:17.257Z,47.13
2022-08-20T06:55:19.463Z,52.90
2022-08-20T06:57:21.443Z,43.40
2022-08-20T06:59:23.369Z,45.30
2022-08-20T07:01:25.651Z,47.33
2022-08-20T07:03:28.481Z,45.90
2022-08-20T07:05:35.916Z,50.30
2022-08-20T07:07:38.271Z,49.20
2022-08-20T07:09:40.283Z,43.30
2022-08-20T07:11:42.275Z,45.60
2022-08-20T07:13:45.422Z,45.00
2022-08-20T07:15:47.579Z,47.07
2022-08-20T07:17:56.411Z,45.50
2022-08-20T07:20:08.381Z,48.30
2022-08-20T07:22:12.761Z,47.30
2022-08-20T07:24:14.731Z,50.37
2022-08-20T07:26:17.640Z,48.37
2022-08-20T07:28:22.115Z,46.77
2022-08-20T07:30:56.820Z,51.20
2022-08-20T07:32:59.970Z,43.50
2022-08-20T07:35:04.209Z,46.00
2022-08-20T07:37:06.241Z,43.77
2022-08-20T07:39:08.287Z,42.63
2022-08-20T07:41:13.516Z,42.73
2022-08-20T07:43:16.331Z,48.80
2022-08-20T07:45:21.216Z,43.07
2022-08-20T07:47:23.282Z,43.87
2022-08-20T07:49:25.397Z,43.77
2022-08-20T07:51:27.627Z,45.20
2022-08-20T07:53:33.617Z,44.50
2022-08-20T07:55:38.187Z,44.03
2022-08-20T07:57:40.572Z,46.93
2022-08-20T07:59:42.564Z,44.97
2022-08-20T08:01:44.684Z,41.40
2022-08-20T08:03:49.922Z,42.43
2022-08-20T08:05:52.522Z,44.87
2022-08-20T08:07:54.540Z,43.10
2022-08-20T08:09:57.225Z,42.63
2022-08-20T08:12:00.666Z,39.30
2022-08-20T08:14:04.208Z,44.23
2022-08-20T08:16:07.705Z,41.93
2022-08-20T08:18:14.611Z,39.83
2022-08-20T08:20:17.206Z,41.30
2022-08-20T08:22:19.596Z,41.70
2022-08-20T08:24:25.325Z,38.10
2022-08-20T08:26:29.911Z,35.60
2022-08-20T08:28:32.384Z,36.27
2022-08-20T08:30:34.483Z,40.50
2022-08-20T08:32:37.607Z,37.53
2022-08-20T08:34:39.622Z,36.10
2022-08-20T08:36:44.157Z,40.00
2022-08-20T08:38:46.575Z,37.10
2022-08-20T08:40:51.611Z,40.70
2022-08-20T08:43:04.028Z,38.13
2022-08-20T08:45:08.200Z,41.83
2022-08-20T08:47:25.753Z,40.83
2022-08-20T08:49:38.114Z,36.27
2022-08-20T08:51:52.251Z,35.13
2022-08-20T08:53:55.781Z,36.87
2022-08-20T08:55:57.747Z,39.50
2022-08-20T08:58:16.691Z,42.33
2022-08-20T09:00:21.636Z,37.30
2022-08-20T09:02:26.739Z,42.00
2022-08-20T09:04:35.207Z,34.60
2022-08-20T09:06:37.262Z,36.13
2022-08-20T09:08:45.864Z,37.50
2022-08-20T09:10:47.914Z,37.70
2022-08-20T09:12:50.113Z,35.33
2022-08-20T09:14:54.613Z,35.20
2022-08-20T09:16:56.607Z,35.90
2022-08-20T09:18:59.910Z,47.30
2022-08-20T09:21:02.038Z,36.10
2022-08-20T09:23:06.961Z,31.77
2022-08-20T09:25:09.206Z,35.17
2022-08-20T09:27:11.940Z,32.97
2022-08-20T09:29:14.276Z,33.90
2022-08-20T09:31:18.293Z,34.07
2022-08-20T09:33:20.711Z,34.47
2022-08-20T09:35:23.664Z,38.13
2022-08-20T09:37:28.341Z,33.37
2022-08-20T09:39:30.563Z,30.53
2022-08-20T09:41:34.366Z,31.07
2022-08-20T09:43:37.232Z,32.40
2022-08-20T09:45:39.363Z,32.10
2022-08-20T09:47:54.783Z,30.63
2022-08-20T09:49:58.294Z,35.70
2022-08-20T09:52:01.478Z,33.20
2022-08-20T09:54:03.723Z,37.00
2022-08-20T09:56:06.145Z,32.60
2022-08-20T09:58:13.942Z,31.67
2022-08-20T10:00:16.840Z,37.03
2022-08-20T10:02:19.129Z,35.00
2022-08-20T10:04:21.300Z,37.30
2022-08-20T10:06:23.405Z,30.80
2022-08-20T10:08:25.701Z,29.37
2022-08-20T10:10:30.810Z,28.90
2022-08-20T10:12:32.886Z,28.33
2022-08-20T10:14:35.011Z,32.23
2022-08-20T10:16:37.139Z,29.63
2022-08-20T10:18:39.288Z,29.50
2022-08-20T10:20:41.581Z,32.10
2022-08-20T10:22:43.767Z,30.83
2022-08-20T10:24:45.935Z,29.77
2022-08-20T10:26:48.428Z,33.93
2022-08-20T10:28:52.027Z,33.03
2022-08-20T10:30:54.147Z,35.50
2022-08-20T10:32:56.256Z,30.30
2022-08-20T10:34:58.424Z,31.00
2022-08-20T10:37:00.588Z,26.47
2022-08-20T10:39:02.801Z,29.50
2022-08-20T10:41:05.169Z,30.33
2022-08-20T10:43:07.279Z,29.63
2022-08-20T10:45:14.129Z,29.20
2022-08-20T10:47:19.161Z,30.00
2022-08-20T10:49:21.289Z,28.67
2022-08-20T10:51:32.698Z,25.83
2022-08-20T10:53:35.594Z,28.90
2022-08-20T10:55:37.789Z,27.90
2022-08-20T10:57:41.222Z,28.97
2022-08-20T10:59:45.186Z,30.47
2022-08-20T11:01:47.443Z,26.93
2022-08-20T11:03:49.596Z,24.87
2022-08-20T11:05:51.756Z,32.43
2022-08-20T11:07:56.744Z,31.40
2022-08-20T11:09:59.232Z,28.53
2022-08-20T11:12:01.351Z,29.70
2022-08-20T11:14:03.486Z,29.33
2022-08-20T11:16:05.864Z,29.13
2022-08-20T11:18:09.116Z,26.77
2022-08-20T11:20:13.330Z,35.23
2022-08-20T11:22:15.908Z,28.67
2022-08-20T11:24:19.034Z,31.57
2022-08-20T11:26:25.158Z,35.53
2022-08-20T11:28:31.957Z,31.40
2022-08-20T11:30:36.774Z,25.43
2022-08-20T11:32:38.895Z,27.07
2022-08-20T11:34:41.039Z,22.83
2022-08-20T11:36:43.979Z,23.47
2022-08-20T11:38:46.225Z,25.17
2022-08-20T11:40:48.341Z,20.63
2022-08-20T11:43:13.091Z,22.27
2022-08-20T11:45:12.679Z,27.30
2022-08-20T11:47:24.311Z,27.57
2022-08-20T11:49:26.490Z,22.43
2022-08-20T11:51:28.615Z,21.53
2022-08-20T11:53:30.923Z,22.70
2022-08-20T11:55:34.228Z,21.90
2022-08-20T11:57:42.093Z,20.70
2022-08-20T11:59:49.182Z,18.43
2022-08-20T12:02:02.945Z,23.13
2022-08-20T12:04:05.510Z,23.30
2022-08-20T12:06:07.799Z,21.47
2022-08-20T12:08:10.774Z,19.23
2022-08-20T12:10:29.437Z,18.20
2022-08-20T12:12:31.514Z,16.67
2022-08-20T12:14:33.783Z,18.23
2022-08-20T12:16:35.916Z,15.77
2022-08-20T12:18:38.242Z,15.33
2022-08-20T12:20:40.450Z,12.13
2022-08-20T12:22:43.911Z,15.30
2022-08-20T12:24:46.509Z,16.53
2022-08-20T12:26:48.673Z,13.20
2022-08-20T12:28:50.825Z,15.10
2022-08-20T12:30:52.924Z,15.87
2022-08-20T12:32:55.049Z,14.23
2022-08-20T12:34:57.825Z,16.57
2022-08-20T12:37:05.302Z,16.13
2022-08-20T12:39:09.223Z,18.00
2022-08-20T12:41:11.426Z,15.33
2022-08-20T12:43:13.634Z,19.90
2022-08-20T12:45:16.646Z,31.83
2022-08-20T12:47:22.766Z,19.50
2022-08-20T12:49:24.971Z,15.27
2022-08-20T12:51:27.119Z,17.70
2022-08-20T12:53:29.306Z,17.13
2022-08-20T12:55:32.594Z,13.27
2022-08-20T12:57:38.132Z,22.10
2022-08-20T12:59:40.391Z,15.90
2022-08-20T13:01:42.624Z,11.73
2022-08-20T13:03:45.306Z,14.20
2022-08-20T13:05:48.112Z,10.90
2022-08-20T13:07:50.950Z,15.93
2022-08-20T13:09:53.119Z,14.00
2022-08-20T13:11:55.272Z,14.93
2022-08-20T13:13:57.365Z,13.30
2022-08-20T13:16:04.627Z,16.37
2022-08-20T13:18:07.856Z,13.77
2022-08-20T13:20:15.712Z,16.33
2022-08-20T13:22:17.916Z,14.27
2022-08-20T13:24:20.334Z,11.23
2022-08-20T13:26:22.546Z,10.63
2022-08-20T13:28:24.986Z,13.70
2022-08-20T13:30:27.436Z,16.03
2022-08-20T13:32:29.603Z,12.60
2022-08-20T13:34:32.057Z,10.20
2022-08-20T13:36:34.833Z,13.90
2022-08-20T13:38:36.952Z,11.63
2022-08-20T13:40:39.146Z,11.67
2022-08-20T13:42:41.322Z,12.10
2022-08-20T13:44:43.839Z,11.80
2022-08-20T13:46:47.288Z,11.67
2022-08-20T13:48:50.607Z,11.37
2022-08-20T13:50:52.692Z,12.60
2022-08-20T13:52:57.237Z,13.10
2022-08-20T13:54:59.541Z,11.67
2022-08-20T13:57:15.164Z,13.27
2022-08-20T13:59:17.368Z,11.83
2022-08-20T14:01:19.569Z,13.40
2022-08-20T14:03:25.483Z,10.53
2022-08-20T14:05:28.504Z,13.27
2022-08-20T14:07:32.767Z,12.93
2022-08-20T14:09:38.505Z,13.47
2022-08-20T14:11:40.703Z,12.23
2022-08-20T14:13:42.955Z,11.50
2022-08-20T14:15:45.870Z,12.00
2022-08-20T14:17:54.998Z,13.07
2022-08-20T14:20:02.985Z,12.27
2022-08-20T14:22:05.397Z,16.03
2022-08-20T14:24:07.723Z,15.43
2022-08-20T14:26:09.933Z,12.40
2022-08-20T14:28:14.927Z,12.93
2022-08-20T14:30:25.512Z,11.00
2022-08-20T14:32:28.281Z,12.37
2022-08-20T14:34:30.473Z,12.33
2022-08-20T14:36:32.645Z,12.00
2022-08-20T14:38:34.757Z,13.50
2022-08-20T14:40:36.984Z,13.90
2022-08-20T14:42:39.520Z,13.60
2022-08-20T14:44:42.563Z,12.70
2022-08-20T14:46:44.727Z,13.83
2022-08-20T14:48:46.837Z,11.37
2022-08-20T14:50:55.961Z,11.40
2022-08-20T14:52:58.628Z,12.20
2022-08-20T14:55:00.934Z,11.20
2022-08-20T14:57:03.334Z,12.93
2022-08-20T14:59:05.531Z,11.17
2022-08-20T15:01:07.757Z,14.90
2022-08-20T15:03:09.997Z,12.90
2022-08-20T15:05:13.233Z,13.80
2022-08-20T15:07:23.250Z,11.83
2022-08-20T15:09:25.408Z,12.13
2022-08-20T15:11:30.299Z,13.53
2022-08-20T15:13:34.631Z,13.87
2022-08-20T15:15:37.298Z,11.67
2022-08-20T15:17:44.220Z,12.47
2022-08-20T15:19:46.439Z,8.80
2022-08-20T15:21:49.042Z,7.20
2022-08-20T15:23:51.224Z,6.23
2022-08-20T15:25:53.491Z,7.27
2022-08-20T15:27:58.279Z,6.77
2022-08-20T15:30:07.710Z,6.23
2022-08-20T15:32:10.009Z,6.73
2022-08-20T15:34:17.766Z,5.90
2022-08-20T15:36:20.427Z,6.30
2022-08-20T15:38:22.518Z,7.00
2022-08-20T15:40:28.386Z,6.60
2022-08-20T15:42:31.114Z,7.50
2022-08-20T15:44:34.216Z,8.70
2022-08-20T15:46:39.429Z,8.87
2022-08-20T15:48:45.456Z,5.97
2022-08-20T15:50:47.539Z,6.10
2022-08-20T15:52:49.651Z,7.03
2022-08-20T15:54:52.453Z,7.53
2022-08-20T15:57:13.646Z,5.40
2022-08-20T15:59:30.935Z,7.13
2022-08-20T16:01:48.337Z,5.40
2022-08-20T16:03:53.508Z,38.33
2022-08-20T16:06:08.571Z,22.07
2022-08-20T16:08:54.911Z,7.30
2022-08-20T16:11:41.173Z,6.00
2022-08-20T16:13:50.556Z,8.30
2022-08-20T16:15:54.628Z,6.73
2022-08-20T16:18:25.247Z,7.70
2022-08-20T16:20:35.859Z,7.30
2022-08-20T16:22:43.753Z,5.77
2022-08-20T16:24:46.012Z,6.90
2022-08-20T16:27:13.404Z,6.13
2022-08-20T16:29:53.939Z,6.23
2022-08-20T16:32:10.667Z,6.23
2022-08-20T16:34:48.160Z,7.30
2022-08-20T16:37:05.451Z,8.30
2022-08-20T16:39:13.422Z,7.60
2022-08-20T16:41:26.163Z,8.80
2022-08-20T16:43:37.466Z,8.13
2022-08-20T16:45:50.953Z,6.97
2022-08-20T16:47:58.925Z,6.97
2022-08-20T16:50:23.597Z,7.20
2022-08-20T16:52:26.044Z,11.40
2022-08-20T16:54:31.045Z,10.83
2022-08-20T16:56:35.584Z,9.30
2022-08-20T16:58:37.757Z,11.50
2022-08-20T17:00:45.024Z,8.53
2022-08-20T17:02:53.612Z,8.43
2022-08-20T17:04:59.041Z,8.37
2022-08-20T17:07:02.946Z,8.83
2022-08-20T17:09:13.443Z,9.33
2022-08-20T17:11:23.074Z,10.63
2022-08-20T17:13:31.704Z,5.53
2022-08-20T17:15:35.329Z,7.60
2022-08-20T17:17:37.554Z,7.70
2022-08-20T17:19:39.770Z,10.60
2022-08-20T17:21:42.315Z,8.00
2022-08-20T17:23:55.933Z,8.23
2022-08-20T17:26:01.828Z,7.00
2022-08-20T17:28:23.099Z,6.90
2022-08-20T17:30:29.550Z,6.57
2022-08-20T17:32:32.010Z,8.77
2022-08-20T17:34:46.810Z,7.23
2022-08-20T17:36:57.940Z,8.37
2022-08-20T17:39:01.124Z,8.63
2022-08-20T17:41:12.843Z,7.13
2022-08-20T17:43:31.829Z,6.70
2022-08-20T17:45:43.504Z,10.43
2022-08-20T17:47:45.649Z,7.60
2022-08-20T17:50:02.120Z,7.20
2022-08-20T17:52:12.042Z,6.37
2022-08-20T17:54:20.396Z,7.00
2022-08-20T17:56:26.597Z,7.47
2022-08-20T17:58:54.284Z,11.10
2022-08-20T18:00:58.997Z,9.60
2022-08-20T18:03:09.998Z,11.07
2022-08-20T18:05:18.525Z,11.00
2022-08-20T18:07:31.743Z,9.90
2022-08-20T18:10:03.224Z,8.00
2022-08-20T18:12:24.306Z,8.33
2022-08-20T18:15:00.453Z,10.67
2022-08-20T18:17:16.760Z,8.50
2022-08-20T18:19:18.803Z,9.77
2022-08-20T18:21:31.916Z,16.00
2022-08-20T18:23:41.651Z,9.83
2022-08-20T18:25:53.293Z,8.07
2022-08-20T18:28:00.890Z,9.47
2022-08-20T18:30:04.506Z,11.23
2022-08-20T18:32:29.637Z,11.80
2022-08-20T18:34:31.729Z,11.73
2022-08-20T18:36:34.429Z,12.90
2022-08-20T18:38:41.914Z,16.60
2022-08-20T18:40:44.070Z,16.23
2022-08-20T18:42:47.122Z,17.40
2022-08-20T18:44:52.044Z,19.73
2022-08-20T18:47:01.989Z,13.97
2022-08-20T18:49:08.570Z,12.00
2022-08-20T18:51:11.279Z,10.10
2022-08-20T18:53:13.361Z,12.67
2022-08-20T18:55:29.263Z,11.60
2022-08-20T18:57:40.866Z,13.20
2022-08-20T18:59:47.264Z,12.67
2022-08-20T19:01:49.777Z,10.60
2022-08-20T19:03:54.635Z,9.17
2022-08-20T19:05:56.731Z,11.77
2022-08-20T19:08:01.555Z,10.67
2022-08-20T19:10:27.920Z,10.73
2022-08-20T19:12:57.231Z,12.90
2022-08-20T19:15:07.093Z,9.40
2022-08-20T19:17:37.644Z,9.90
2022-08-20T19:19:39.832Z,10.10
2022-08-20T19:21:42.842Z,11.27
2022-08-20T19:23:52.003Z,10.20
2022-08-20T19:26:06.728Z,11.30
2022-08-20T19:28:41.272Z,9.67
2022-08-20T19:30:43.513Z,10.87
2022-08-20T19:32:51.950Z,12.67
2022-08-20T19:34:58.068Z,11.63
2022-08-20T19:37:34.780Z,11.43
2022-08-20T19:39:35.833Z,10.53
2022-08-20T19:42:13.327Z,10.43
2022-08-20T19:44:45.562Z,12.03
2022-08-20T19:46:49.772Z,12.33
2022-08-20T19:49:19.365Z,12.90
2022-08-20T19:51:45.883Z,14.90
2022-08-20T19:53:50.223Z,12.73
2022-08-20T19:56:11.221Z,12.50
2022-08-20T19:58:26.335Z,12.10
2022-08-20T20:00:32.674Z,13.37
2022-08-20T20:02:35.466Z,12.87
2022-08-20T20:04:55.271Z,15.10
2022-08-20T20:07:00.116Z,13.53
2022-08-20T20:09:14.161Z,15.93
2022-08-20T20:11:20.438Z,14.77
2022-08-20T20:13:23.780Z,14.07
2022-08-20T20:15:25.972Z,13.50
2022-08-20T20:17:32.045Z,13.27
2022-08-20T20:19:49.521Z,23.57
2022-08-20T20:22:08.520Z,14.23
2022-08-20T20:24:29.740Z,15.03
2022-08-20T20:26:35.511Z,15.20
2022-08-20T20:28:48.061Z,12.33
2022-08-20T20:30:50.861Z,14.13
2022-08-20T20:32:53.116Z,16.13
2022-08-20T20:34:58.598Z,15.73
2022-08-20T20:37:12.076Z,12.63
2022-08-20T20:39:28.061Z,16.77
2022-08-20T20:41:30.224Z,15.40
2022-08-20T20:43:38.275Z,13.87
2022-08-20T20:45:44.757Z,12.70
2022-08-20T20:47:51.830Z,12.97
2022-08-20T20:50:03.599Z,13.10
2022-08-20T20:52:20.404Z,14.00
2022-08-20T20:54:42.201Z,13.40
2022-08-20T20:56:44.507Z,16.10
2022-08-20T20:58:53.834Z,14.07
2022-08-20T21:00:58.080Z,12.23
2022-08-20T21:03:02.819Z,15.70
2022-08-20T21:05:06.746Z,14.70
2022-08-20T21:07:12.219Z,12.77
2022-08-20T21:09:14.726Z,16.20
2022-08-20T21:11:16.873Z,12.90
2022-08-20T21:13:18.997Z,17.43
2022-08-20T21:15:22.987Z,13.07
2022-08-20T21:17:25.660Z,14.17
2022-08-20T21:19:28.297Z,14.43
2022-08-20T21:21:30.548Z,16.30
2022-08-20T21:23:40.119Z,19.50
2022-08-20T21:25:44.118Z,15.30
2022-08-20T21:27:50.095Z,18.87
2022-08-20T21:29:52.804Z,14.17
2022-08-20T21:31:55.172Z,12.13
2022-08-20T21:33:57.947Z,13.50
2022-08-20T21:36:03.578Z,13.97
2022-08-20T21:38:05.687Z,16.07
2022-08-20T21:40:09.504Z,15.07
2022-08-20T21:42:28.429Z,15.77
2022-08-20T21:44:32.596Z,18.40
2022-08-20T21:46:34.816Z,19.90
2022-08-20T21:48:37.266Z,14.97
2022-08-20T21:50:40.376Z,15.87
2022-08-20T21:52:55.341Z,15.70
2022-08-20T21:55:02.114Z,15.87
2022-08-20T21:57:07.696Z,16.20
2022-08-20T21:59:10.125Z,14.77
2022-08-20T22:01:13.005Z,18.20
2022-08-20T22:03:16.610Z,19.40
2022-08-20T22:05:22.411Z,15.73
2022-08-20T22:07:24.674Z,18.60
2022-08-20T22:09:27.715Z,18.40
2022-08-20T22:11:30.007Z,16.97
2022-08-20T22:13:33.094Z,14.83
2022-08-20T22:15:35.274Z,17.83
2022-08-20T22:17:37.594Z,12.03
2022-08-20T22:19:39.814Z,15.77
2022-08-20T22:21:45.171Z,15.53
2022-08-20T22:23:47.353Z,13.50
2022-08-20T22:25:49.935Z,14.17
2022-08-20T22:27:52.100Z,17.07
2022-08-20T22:29:54.214Z,14.63
2022-08-20T22:31:58.538Z,15.47
2022-08-20T22:34:00.774Z,13.13
2022-08-20T22:36:05.329Z,17.90
2022-08-20T22:38:07.462Z,13.67
2022-08-20T22:40:10.259Z,15.17
2022-08-20T22:42:12.409Z,15.40
2022-08-20T22:44:14.534Z,13.70
2022-08-20T22:46:17.190Z,13.47
2022-08-20T22:48:20.832Z,13.43
2022-08-20T22:50:24.381Z,15.67
2022-08-20T22:52:26.541Z,13.60
2022-08-20T22:54:28.915Z,17.63
2022-08-20T22:56:31.264Z,14.60
2022-08-20T22:58:33.456Z,19.80
2022-08-20T23:00:35.944Z,17.90
2022-08-20T23:02:39.450Z,14.00
2022-08-20T23:04:41.674Z,15.40
2022-08-20T23:06:43.772Z,18.13
2022-08-20T23:08:46.867Z,16.70
2022-08-20T23:10:48.894Z,16.73
2022-08-20T23:12:54.285Z,22.00
2022-08-20T23:14:56.278Z,16.73
2022-08-20T23:17:02.418Z,12.77
2022-08-20T23:19:04.587Z,14.83
2022-08-20T23:21:06.530Z,16.70
2022-08-20T23:23:09.006Z,16.67
2022-08-20T23:25:12.376Z,14.43
2022-08-20T23:27:17.378Z,16.90
2022-08-20T23:29:22.362Z,15.50
2022-08-20T23:31:27.694Z,13.97
2022-08-20T23:33:31.403Z,17.23
2022-08-20T23:35:33.745Z,15.93
2022-08-20T23:37:38.934Z,14.37
2022-08-20T23:39:41.020Z,15.27
2022-08-20T23:41:47.904Z,15.10
2022-08-20T23:43:50.260Z,14.73
2022-08-20T23:45:52.437Z,19.47
2022-08-20T23:47:54.738Z,25.00
2022-08-20T23:49:56.919Z,15.30
2022-08-20T23:52:00.620Z,15.43
2022-08-20T23:54:02.657Z,14.20
2022-08-20T23:56:05.378Z,15.70
2022-08-20T23:58:08.204Z,16.37
